sensor_id;sensor_type;location;lat;lon;timestamp;temperature;humidity
13638;DHT22;6892;50.916;4.356;2022-07-09T00:00:48;16.80;99.90
13638;DHT22;6892;50.916;4.356;2022-07-09T00:03:15;16.80;99.90
13638;DHT22;6892;50.916;4.356;2022-07-09T00:05:42;16.80;99.90
13638;DHT22;6892;50.916;4.356;2022-07-09T00:08:09;16.80;99.90
13638;DHT22;6892;50.916;4.356;2022-07-09T00:10:37;16.70;99.90
13638;DHT22;6892;50.916;4.356;2022-07-09T00:13:04;16.60;99.90
13638;DHT22;6892;50.916;4.356;2022-07-09T00:15:30;16.60;99.90
13638;DHT22;6892;50.916;4.356;2022-07-09T00:17:57;16.50;99.90
13638;DHT22;6892;50.916;4.356;2022-07-09T00:20:24;16.50;99.90
13638;DHT22;6892;50.916;4.356;2022-07-09T00:22:51;16.50;99.90
13638;DHT22;6892;50.916;4.356;2022-07-09T00:25:19;16.50;99.90
13638;DHT22;6892;50.916;4.356;2022-07-09T00:27:47;16.40;99.90
13638;DHT22;6892;50.916;4.356;2022-07-09T00:30:14;16.40;99.90
13638;DHT22;6892;50.916;4.356;2022-07-09T00:32:41;16.40;99.90
13638;DHT22;6892;50.916;4.356;2022-07-09T00:35:08;16.40;99.90
13638;DHT22;6892;50.916;4.356;2022-07-09T00:37:35;16.40;99.90
13638;DHT22;6892;50.916;4.356;2022-07-09T00:40:01;16.40;99.90
13638;DHT22;6892;50.916;4.356;2022-07-09T00:42:28;16.40;99.90
13638;DHT22;6892;50.916;4.356;2022-07-09T00:44:56;16.40;99.90
13638;DHT22;6892;50.916;4.356;2022-07-09T00:47:23;16.40;99.90
13638;DHT22;6892;50.916;4.356;2022-07-09T00:49:50;16.40;99.90
13638;DHT22;6892;50.916;4.356;2022-07-09T00:52:16;16.40;99.90
13638;DHT22;6892;50.916;4.356;2022-07-09T00:54:44;16.40;99.90
13638;DHT22;6892;50.916;4.356;2022-07-09T00:57:11;16.40;99.90
13638;DHT22;6892;50.916;4.356;2022-07-09T00:59:38;16.30;99.90
13638;DHT22;6892;50.916;4.356;2022-07-09T01:02:07;16.30;99.90
13638;DHT22;6892;50.916;4.356;2022-07-09T01:04:34;16.30;99.90
13638;DHT22;6892;50.916;4.356;2022-07-09T01:07:02;16.30;99.90
13638;DHT22;6892;50.916;4.356;2022-07-09T01:09:29;16.30;99.90
13638;DHT22;6892;50.916;4.356;2022-07-09T01:11:56;16.30;99.90
13638;DHT22;6892;50.916;4.356;2022-07-09T01:14:23;16.30;99.90
13638;DHT22;6892;50.916;4.356;2022-07-09T01:16:56;16.40;99.90
13638;DHT22;6892;50.916;4.356;2022-07-09T01:19:24;16.40;99.90
13638;DHT22;6892;50.916;4.356;2022-07-09T01:21:53;16.50;99.90
13638;DHT22;6892;50.916;4.356;2022-07-09T01:24:20;16.60;99.90
13638;DHT22;6892;50.916;4.356;2022-07-09T01:26:46;16.70;99.90
13638;DHT22;6892;50.916;4.356;2022-07-09T01:29:13;16.80;99.90
13638;DHT22;6892;50.916;4.356;2022-07-09T01:31:40;16.90;99.90
13638;DHT22;6892;50.916;4.356;2022-07-09T01:34:07;16.90;99.90
13638;DHT22;6892;50.916;4.356;2022-07-09T01:36:34;16.90;99.90
13638;DHT22;6892;50.916;4.356;2022-07-09T01:39:02;16.80;99.90
13638;DHT22;6892;50.916;4.356;2022-07-09T01:41:29;16.70;99.90
13638;DHT22;6892;50.916;4.356;2022-07-09T01:43:56;16.70;99.90
13638;DHT22;6892;50.916;4.356;2022-07-09T01:46:23;16.60;99.90
13638;DHT22;6892;50.916;4.356;2022-07-09T01:48:50;16.50;99.90
13638;DHT22;6892;50.916;4.356;2022-07-09T01:51:17;16.40;99.90
13638;DHT22;6892;50.916;4.356;2022-07-09T01:53:43;16.30;99.90
13638;DHT22;6892;50.916;4.356;2022-07-09T01:56:12;16.20;99.90
13638;DHT22;6892;50.916;4.356;2022-07-09T01:58:39;16.10;99.90
13638;DHT22;6892;50.916;4.356;2022-07-09T02:01:06;16.10;99.90
13638;DHT22;6892;50.916;4.356;2022-07-09T02:03:33;16.00;99.90
13638;DHT22;6892;50.916;4.356;2022-07-09T02:06:00;16.00;99.90
13638;DHT22;6892;50.916;4.356;2022-07-09T02:08:27;16.00;99.90
13638;DHT22;6892;50.916;4.356;2022-07-09T02:10:54;16.00;99.90
13638;DHT22;6892;50.916;4.356;2022-07-09T02:13:22;15.90;99.90
13638;DHT22;6892;50.916;4.356;2022-07-09T02:15:49;16.00;99.90
13638;DHT22;6892;50.916;4.356;2022-07-09T02:18:15;16.00;99.90
13638;DHT22;6892;50.916;4.356;2022-07-09T02:20:42;16.00;99.90
13638;DHT22;6892;50.916;4.356;2022-07-09T02:23:09;16.00;99.90
13638;DHT22;6892;50.916;4.356;2022-07-09T02:25:35;16.00;99.90
13638;DHT22;6892;50.916;4.356;2022-07-09T02:28:02;16.00;99.90
13638;DHT22;6892;50.916;4.356;2022-07-09T02:30:31;16.00;99.90
13638;DHT22;6892;50.916;4.356;2022-07-09T02:32:58;16.00;99.90
13638;DHT22;6892;50.916;4.356;2022-07-09T02:35:25;16.10;99.90
13638;DHT22;6892;50.916;4.356;2022-07-09T02:37:51;16.10;99.90
13638;DHT22;6892;50.916;4.356;2022-07-09T02:40:18;16.20;99.90
13638;DHT22;6892;50.916;4.356;2022-07-09T02:42:45;16.20;99.90
13638;DHT22;6892;50.916;4.356;2022-07-09T02:45:11;16.30;99.90
13638;DHT22;6892;50.916;4.356;2022-07-09T02:47:40;16.30;99.90
13638;DHT22;6892;50.916;4.356;2022-07-09T02:50:07;16.40;99.90
13638;DHT22;6892;50.916;4.356;2022-07-09T02:52:33;16.40;99.90
13638;DHT22;6892;50.916;4.356;2022-07-09T02:55:00;16.50;99.90
13638;DHT22;6892;50.916;4.356;2022-07-09T02:57:27;16.50;99.90
13638;DHT22;6892;50.916;4.356;2022-07-09T02:59:54;16.60;99.90
13638;DHT22;6892;50.916;4.356;2022-07-09T03:02:21;16.60;99.90
13638;DHT22;6892;50.916;4.356;2022-07-09T03:04:49;16.60;99.90
13638;DHT22;6892;50.916;4.356;2022-07-09T03:07:16;16.60;99.90
13638;DHT22;6892;50.916;4.356;2022-07-09T03:09:43;16.60;99.90
13638;DHT22;6892;50.916;4.356;2022-07-09T03:12:09;16.60;99.90
13638;DHT22;6892;50.916;4.356;2022-07-09T03:14:36;16.70;99.90
13638;DHT22;6892;50.916;4.356;2022-07-09T03:17:03;16.70;99.90
13638;DHT22;6892;50.916;4.356;2022-07-09T03:19:30;16.70;99.90
13638;DHT22;6892;50.916;4.356;2022-07-09T03:21:58;16.70;99.90
13638;DHT22;6892;50.916;4.356;2022-07-09T03:24:25;16.60;99.90
13638;DHT22;6892;50.916;4.356;2022-07-09T03:26:52;16.70;99.90
13638;DHT22;6892;50.916;4.356;2022-07-09T03:29:18;16.70;99.90
13638;DHT22;6892;50.916;4.356;2022-07-09T03:31:45;16.60;99.90
13638;DHT22;6892;50.916;4.356;2022-07-09T03:34:12;16.60;99.90
13638;DHT22;6892;50.916;4.356;2022-07-09T03:36:39;16.60;99.90
13638;DHT22;6892;50.916;4.356;2022-07-09T03:39:07;16.60;99.90
13638;DHT22;6892;50.916;4.356;2022-07-09T03:41:34;16.60;99.90
13638;DHT22;6892;50.916;4.356;2022-07-09T03:44:00;16.60;99.90
13638;DHT22;6892;50.916;4.356;2022-07-09T03:46:27;16.60;99.90
13638;DHT22;6892;50.916;4.356;2022-07-09T03:48:54;16.60;99.90
13638;DHT22;6892;50.916;4.356;2022-07-09T03:51:21;16.60;99.90
13638;DHT22;6892;50.916;4.356;2022-07-09T03:53:48;16.70;99.90
13638;DHT22;6892;50.916;4.356;2022-07-09T03:56:16;16.70;99.90
13638;DHT22;6892;50.916;4.356;2022-07-09T03:58:45;16.80;99.90
13638;DHT22;6892;50.916;4.356;2022-07-09T04:01:12;16.80;99.90
13638;DHT22;6892;50.916;4.356;2022-07-09T04:03:39;16.80;99.90
13638;DHT22;6892;50.916;4.356;2022-07-09T04:06:06;16.80;99.90
13638;DHT22;6892;50.916;4.356;2022-07-09T04:08:32;16.80;99.90
13638;DHT22;6892;50.916;4.356;2022-07-09T04:10:59;16.90;99.90
13638;DHT22;6892;50.916;4.356;2022-07-09T04:13:28;16.90;99.90
13638;DHT22;6892;50.916;4.356;2022-07-09T04:15:55;16.90;99.90
13638;DHT22;6892;50.916;4.356;2022-07-09T04:18:21;17.00;99.90
13638;DHT22;6892;50.916;4.356;2022-07-09T04:20:48;17.00;99.90
13638;DHT22;6892;50.916;4.356;2022-07-09T04:23:16;17.10;99.90
13638;DHT22;6892;50.916;4.356;2022-07-09T04:25:43;17.10;99.90
13638;DHT22;6892;50.916;4.356;2022-07-09T04:28:10;17.00;99.90
13638;DHT22;6892;50.916;4.356;2022-07-09T04:30:39;17.00;99.90
13638;DHT22;6892;50.916;4.356;2022-07-09T04:33:06;17.00;99.90
13638;DHT22;6892;50.916;4.356;2022-07-09T04:35:32;17.00;99.90
13638;DHT22;6892;50.916;4.356;2022-07-09T04:38:00;17.00;99.90
13638;DHT22;6892;50.916;4.356;2022-07-09T04:40:27;16.90;99.90
13638;DHT22;6892;50.916;4.356;2022-07-09T04:42:54;16.90;99.90
13638;DHT22;6892;50.916;4.356;2022-07-09T04:45:21;16.90;99.90
13638;DHT22;6892;50.916;4.356;2022-07-09T04:47:49;17.00;99.90
13638;DHT22;6892;50.916;4.356;2022-07-09T04:50:16;17.10;99.90
13638;DHT22;6892;50.916;4.356;2022-07-09T04:52:43;17.20;99.90
13638;DHT22;6892;50.916;4.356;2022-07-09T04:55:10;17.20;99.90
13638;DHT22;6892;50.916;4.356;2022-07-09T04:57:37;17.40;99.90
13638;DHT22;6892;50.916;4.356;2022-07-09T05:00:04;18.10;99.90
13638;DHT22;6892;50.916;4.356;2022-07-09T05:02:31;19.10;99.90
13638;DHT22;6892;50.916;4.356;2022-07-09T05:04:59;19.70;60.30
13638;DHT22;6892;50.916;4.356;2022-07-09T05:07:29;19.60;27.60
13638;DHT22;6892;50.916;4.356;2022-07-09T05:09:55;19.70;32.80
13638;DHT22;6892;50.916;4.356;2022-07-09T05:12:22;19.50;42.50
13638;DHT22;6892;50.916;4.356;2022-07-09T05:14:49;19.40;59.80
13638;DHT22;6892;50.916;4.356;2022-07-09T05:17:16;19.40;45.00
13638;DHT22;6892;50.916;4.356;2022-07-09T05:19:42;19.30;40.20
13638;DHT22;6892;50.916;4.356;2022-07-09T05:22:11;19.60;18.80
13638;DHT22;6892;50.916;4.356;2022-07-09T05:24:37;20.30;1.00
13638;DHT22;6892;50.916;4.356;2022-07-09T05:27:05;21.00;1.00
13638;DHT22;6892;50.916;4.356;2022-07-09T05:29:34;21.60;1.00
13638;DHT22;6892;50.916;4.356;2022-07-09T05:32:00;22.30;1.00
13638;DHT22;6892;50.916;4.356;2022-07-09T05:34:27;22.60;1.00
13638;DHT22;6892;50.916;4.356;2022-07-09T05:36:54;22.40;1.00
13638;DHT22;6892;50.916;4.356;2022-07-09T05:39:22;21.90;1.00
13638;DHT22;6892;50.916;4.356;2022-07-09T05:41:49;21.50;1.00
13638;DHT22;6892;50.916;4.356;2022-07-09T05:44:16;21.20;1.00
13638;DHT22;6892;50.916;4.356;2022-07-09T05:46:43;20.90;1.00
13638;DHT22;6892;50.916;4.356;2022-07-09T05:49:10;20.70;1.00
13638;DHT22;6892;50.916;4.356;2022-07-09T05:51:37;20.50;1.00
13638;DHT22;6892;50.916;4.356;2022-07-09T05:54:04;20.40;1.00
13638;DHT22;6892;50.916;4.356;2022-07-09T05:56:32;20.50;1.00
13638;DHT22;6892;50.916;4.356;2022-07-09T05:58:59;20.60;1.00
13638;DHT22;6892;50.916;4.356;2022-07-09T06:01:27;20.50;1.00
13638;DHT22;6892;50.916;4.356;2022-07-09T06:03:54;20.50;1.00
13638;DHT22;6892;50.916;4.356;2022-07-09T06:06:21;20.40;1.00
13638;DHT22;6892;50.916;4.356;2022-07-09T06:08:48;20.30;1.00
13638;DHT22;6892;50.916;4.356;2022-07-09T06:11:15;20.40;1.00
13638;DHT22;6892;50.916;4.356;2022-07-09T06:13:43;20.50;1.00
13638;DHT22;6892;50.916;4.356;2022-07-09T06:16:10;20.40;1.00
13638;DHT22;6892;50.916;4.356;2022-07-09T06:18:37;20.60;1.00
13638;DHT22;6892;50.916;4.356;2022-07-09T06:21:03;20.70;1.00
13638;DHT22;6892;50.916;4.356;2022-07-09T06:23:31;20.80;1.00
13638;DHT22;6892;50.916;4.356;2022-07-09T06:25:58;20.90;1.00
13638;DHT22;6892;50.916;4.356;2022-07-09T06:28:25;21.00;1.00
13638;DHT22;6892;50.916;4.356;2022-07-09T06:30:53;21.20;1.00
13638;DHT22;6892;50.916;4.356;2022-07-09T06:33:20;21.30;1.00
13638;DHT22;6892;50.916;4.356;2022-07-09T06:35:46;21.30;1.00
13638;DHT22;6892;50.916;4.356;2022-07-09T06:38:13;21.20;1.00
13638;DHT22;6892;50.916;4.356;2022-07-09T06:40:40;21.10;1.00
13638;DHT22;6892;50.916;4.356;2022-07-09T06:43:06;21.20;1.00
13638;DHT22;6892;50.916;4.356;2022-07-09T06:45:34;21.40;1.00
13638;DHT22;6892;50.916;4.356;2022-07-09T06:48:03;22.10;1.00
13638;DHT22;6892;50.916;4.356;2022-07-09T06:50:29;22.50;1.00
13638;DHT22;6892;50.916;4.356;2022-07-09T06:52:56;22.80;1.00
13638;DHT22;6892;50.916;4.356;2022-07-09T06:55:23;22.90;1.00
13638;DHT22;6892;50.916;4.356;2022-07-09T06:57:49;23.40;1.00
13638;DHT22;6892;50.916;4.356;2022-07-09T07:00:16;24.10;99.90
13638;DHT22;6892;50.916;4.356;2022-07-09T07:02:43;24.00;99.90
13638;DHT22;6892;50.916;4.356;2022-07-09T07:05:11;23.50;99.90
13638;DHT22;6892;50.916;4.356;2022-07-09T07:07:38;23.10;99.90
13638;DHT22;6892;50.916;4.356;2022-07-09T07:10:05;22.80;7.10
13638;DHT22;6892;50.916;4.356;2022-07-09T07:12:32;22.70;1.00
13638;DHT22;6892;50.916;4.356;2022-07-09T07:14:58;22.80;1.00
13638;DHT22;6892;50.916;4.356;2022-07-09T07:17:25;23.60;1.00
13638;DHT22;6892;50.916;4.356;2022-07-09T07:19:52;24.20;20.40
13638;DHT22;6892;50.916;4.356;2022-07-09T07:22:20;24.90;99.90
13638;DHT22;6892;50.916;4.356;2022-07-09T07:24:47;25.50;99.90
13638;DHT22;6892;50.916;4.356;2022-07-09T07:27:13;25.90;99.90
13638;DHT22;6892;50.916;4.356;2022-07-09T07:29:40;26.20;99.90
13638;DHT22;6892;50.916;4.356;2022-07-09T07:32:08;26.10;99.90
13638;DHT22;6892;50.916;4.356;2022-07-09T07:34:34;25.40;99.90
13638;DHT22;6892;50.916;4.356;2022-07-09T07:37:01;24.40;99.90
13638;DHT22;6892;50.916;4.356;2022-07-09T07:39:29;24.20;99.90
13638;DHT22;6892;50.916;4.356;2022-07-09T07:41:56;24.00;99.90
13638;DHT22;6892;50.916;4.356;2022-07-09T07:44:23;23.80;99.90
13638;DHT22;6892;50.916;4.356;2022-07-09T07:46:50;24.60;99.90
13638;DHT22;6892;50.916;4.356;2022-07-09T07:49:17;24.30;99.90
13638;DHT22;6892;50.916;4.356;2022-07-09T07:51:44;24.20;99.90
13638;DHT22;6892;50.916;4.356;2022-07-09T07:54:11;24.40;99.90
13638;DHT22;6892;50.916;4.356;2022-07-09T07:56:39;24.30;99.90
13638;DHT22;6892;50.916;4.356;2022-07-09T07:59:06;25.00;99.90
13638;DHT22;6892;50.916;4.356;2022-07-09T08:01:33;24.90;99.90
13638;DHT22;6892;50.916;4.356;2022-07-09T08:04:00;24.40;99.90
13638;DHT22;6892;50.916;4.356;2022-07-09T08:06:26;23.90;99.90
13638;DHT22;6892;50.916;4.356;2022-07-09T08:08:53;24.40;99.90
13638;DHT22;6892;50.916;4.356;2022-07-09T08:11:20;24.50;99.90
13638;DHT22;6892;50.916;4.356;2022-07-09T08:13:48;24.20;99.90
13638;DHT22;6892;50.916;4.356;2022-07-09T08:16:15;23.70;99.90
13638;DHT22;6892;50.916;4.356;2022-07-09T08:18:41;24.30;99.90
13638;DHT22;6892;50.916;4.356;2022-07-09T08:21:08;24.60;99.90
13638;DHT22;6892;50.916;4.356;2022-07-09T08:23:35;24.10;99.90
13638;DHT22;6892;50.916;4.356;2022-07-09T08:26:17;24.30;99.90
13638;DHT22;6892;50.916;4.356;2022-07-09T08:28:43;24.50;99.90
13638;DHT22;6892;50.916;4.356;2022-07-09T08:31:11;24.00;99.90
13638;DHT22;6892;50.916;4.356;2022-07-09T08:33:38;23.80;99.90
13638;DHT22;6892;50.916;4.356;2022-07-09T08:36:05;23.10;99.90
13638;DHT22;6892;50.916;4.356;2022-07-09T08:38:32;23.70;99.90
13638;DHT22;6892;50.916;4.356;2022-07-09T08:40:59;23.80;99.90
13638;DHT22;6892;50.916;4.356;2022-07-09T08:43:26;24.40;99.90
13638;DHT22;6892;50.916;4.356;2022-07-09T08:45:53;24.90;99.90
13638;DHT22;6892;50.916;4.356;2022-07-09T08:48:22;25.30;99.90
13638;DHT22;6892;50.916;4.356;2022-07-09T08:50:49;26.10;99.90
13638;DHT22;6892;50.916;4.356;2022-07-09T08:53:17;26.60;99.90
13638;DHT22;6892;50.916;4.356;2022-07-09T08:55:44;26.30;99.90
13638;DHT22;6892;50.916;4.356;2022-07-09T08:58:12;26.60;99.90
13638;DHT22;6892;50.916;4.356;2022-07-09T09:00:38;26.60;99.90
13638;DHT22;6892;50.916;4.356;2022-07-09T09:03:05;25.90;99.90
13638;DHT22;6892;50.916;4.356;2022-07-09T09:05:34;26.30;99.90
13638;DHT22;6892;50.916;4.356;2022-07-09T09:08:00;26.70;99.90
13638;DHT22;6892;50.916;4.356;2022-07-09T09:10:44;27.00;99.90
13638;DHT22;6892;50.916;4.356;2022-07-09T09:13:13;27.20;99.90
13638;DHT22;6892;50.916;4.356;2022-07-09T09:15:40;26.60;99.90
13638;DHT22;6892;50.916;4.356;2022-07-09T09:18:06;26.60;99.90
13638;DHT22;6892;50.916;4.356;2022-07-09T09:20:35;26.70;99.90
13638;DHT22;6892;50.916;4.356;2022-07-09T09:23:02;27.00;99.90
13638;DHT22;6892;50.916;4.356;2022-07-09T09:25:35;26.80;99.90
13638;DHT22;6892;50.916;4.356;2022-07-09T09:28:03;26.80;99.90
13638;DHT22;6892;50.916;4.356;2022-07-09T09:30:30;27.20;99.90
13638;DHT22;6892;50.916;4.356;2022-07-09T09:32:57;27.30;99.90
13638;DHT22;6892;50.916;4.356;2022-07-09T09:35:24;27.70;99.90
13638;DHT22;6892;50.916;4.356;2022-07-09T09:37:52;26.70;99.90
13638;DHT22;6892;50.916;4.356;2022-07-09T09:40:19;26.10;99.90
13638;DHT22;6892;50.916;4.356;2022-07-09T09:42:48;26.50;99.90
13638;DHT22;6892;50.916;4.356;2022-07-09T09:45:15;26.40;99.90
13638;DHT22;6892;50.916;4.356;2022-07-09T09:47:43;26.30;99.90
13638;DHT22;6892;50.916;4.356;2022-07-09T09:50:12;26.30;99.90
13638;DHT22;6892;50.916;4.356;2022-07-09T09:52:42;26.20;99.90
13638;DHT22;6892;50.916;4.356;2022-07-09T09:55:11;25.00;99.90
13638;DHT22;6892;50.916;4.356;2022-07-09T09:57:38;24.40;99.90
13638;DHT22;6892;50.916;4.356;2022-07-09T10:00:06;24.30;99.90
13638;DHT22;6892;50.916;4.356;2022-07-09T10:02:33;24.60;99.90
13638;DHT22;6892;50.916;4.356;2022-07-09T10:05:01;24.10;29.00
13638;DHT22;6892;50.916;4.356;2022-07-09T10:07:28;23.90;1.00
13638;DHT22;6892;50.916;4.356;2022-07-09T10:09:57;24.50;1.00
13638;DHT22;6892;50.916;4.356;2022-07-09T10:12:26;25.00;1.00
13638;DHT22;6892;50.916;4.356;2022-07-09T10:14:54;24.90;1.00
13638;DHT22;6892;50.916;4.356;2022-07-09T10:17:21;24.50;1.00
13638;DHT22;6892;50.916;4.356;2022-07-09T10:19:51;24.30;1.00
13638;DHT22;6892;50.916;4.356;2022-07-09T10:22:19;25.00;1.00
13638;DHT22;6892;50.916;4.356;2022-07-09T10:24:45;24.60;1.00
13638;DHT22;6892;50.916;4.356;2022-07-09T10:27:13;24.00;1.00
13638;DHT22;6892;50.916;4.356;2022-07-09T10:29:52;24.10;1.00
13638;DHT22;6892;50.916;4.356;2022-07-09T10:32:21;23.90;1.00
13638;DHT22;6892;50.916;4.356;2022-07-09T10:34:53;24.00;1.00
13638;DHT22;6892;50.916;4.356;2022-07-09T10:37:32;24.50;1.00
13638;DHT22;6892;50.916;4.356;2022-07-09T10:40:09;24.60;1.00
13638;DHT22;6892;50.916;4.356;2022-07-09T10:42:36;24.40;1.00
13638;DHT22;6892;50.916;4.356;2022-07-09T10:45:16;24.50;1.00
13638;DHT22;6892;50.916;4.356;2022-07-09T10:47:49;24.30;1.00
13638;DHT22;6892;50.916;4.356;2022-07-09T10:50:16;24.90;1.00
13638;DHT22;6892;50.916;4.356;2022-07-09T10:52:43;24.40;1.00
13638;DHT22;6892;50.916;4.356;2022-07-09T10:55:10;23.60;1.00
13638;DHT22;6892;50.916;4.356;2022-07-09T10:57:37;23.50;1.00
13638;DHT22;6892;50.916;4.356;2022-07-09T11:00:04;24.20;1.00
13638;DHT22;6892;50.916;4.356;2022-07-09T11:02:32;24.40;1.00
13638;DHT22;6892;50.916;4.356;2022-07-09T11:04:59;23.70;1.00
13638;DHT22;6892;50.916;4.356;2022-07-09T11:07:26;23.90;1.00
13638;DHT22;6892;50.916;4.356;2022-07-09T11:09:53;23.70;1.00
13638;DHT22;6892;50.916;4.356;2022-07-09T11:12:21;23.90;1.00
13638;DHT22;6892;50.916;4.356;2022-07-09T11:14:49;24.60;1.00
13638;DHT22;6892;50.916;4.356;2022-07-09T11:17:17;24.90;1.00
13638;DHT22;6892;50.916;4.356;2022-07-09T11:19:45;24.70;1.00
13638;DHT22;6892;50.916;4.356;2022-07-09T11:22:12;24.50;1.00
13638;DHT22;6892;50.916;4.356;2022-07-09T11:24:39;23.40;1.00
13638;DHT22;6892;50.916;4.356;2022-07-09T11:27:07;23.50;1.00
13638;DHT22;6892;50.916;4.356;2022-07-09T11:29:34;23.10;1.00
13638;DHT22;6892;50.916;4.356;2022-07-09T11:32:01;23.10;1.00
13638;DHT22;6892;50.916;4.356;2022-07-09T11:34:28;23.50;1.00
13638;DHT22;6892;50.916;4.356;2022-07-09T11:36:56;23.20;1.00
13638;DHT22;6892;50.916;4.356;2022-07-09T11:39:24;23.40;1.00
13638;DHT22;6892;50.916;4.356;2022-07-09T11:41:51;23.90;1.00
13638;DHT22;6892;50.916;4.356;2022-07-09T11:44:22;24.00;1.00
13638;DHT22;6892;50.916;4.356;2022-07-09T11:47:04;24.10;1.00
13638;DHT22;6892;50.916;4.356;2022-07-09T11:49:32;23.80;1.00
13638;DHT22;6892;50.916;4.356;2022-07-09T11:52:00;23.30;1.00
13638;DHT22;6892;50.916;4.356;2022-07-09T11:54:27;23.30;1.00
13638;DHT22;6892;50.916;4.356;2022-07-09T11:56:54;23.40;1.00
13638;DHT22;6892;50.916;4.356;2022-07-09T11:59:30;23.40;1.00
13638;DHT22;6892;50.916;4.356;2022-07-09T12:01:58;23.50;1.00
13638;DHT22;6892;50.916;4.356;2022-07-09T12:04:28;23.20;1.00
13638;DHT22;6892;50.916;4.356;2022-07-09T12:06:55;23.00;1.00
13638;DHT22;6892;50.916;4.356;2022-07-09T12:09:30;23.30;1.00
13638;DHT22;6892;50.916;4.356;2022-07-09T12:11:58;23.30;1.00
13638;DHT22;6892;50.916;4.356;2022-07-09T12:14:25;23.30;1.00
13638;DHT22;6892;50.916;4.356;2022-07-09T12:16:52;23.90;1.00
13638;DHT22;6892;50.916;4.356;2022-07-09T12:19:18;24.40;1.00
13638;DHT22;6892;50.916;4.356;2022-07-09T12:21:45;24.00;1.00
13638;DHT22;6892;50.916;4.356;2022-07-09T12:24:12;23.60;1.00
13638;DHT22;6892;50.916;4.356;2022-07-09T12:26:41;23.80;1.00
13638;DHT22;6892;50.916;4.356;2022-07-09T12:29:07;24.00;1.00
13638;DHT22;6892;50.916;4.356;2022-07-09T12:31:34;23.20;1.00
13638;DHT22;6892;50.916;4.356;2022-07-09T12:34:03;22.50;1.00
13638;DHT22;6892;50.916;4.356;2022-07-09T12:36:30;22.70;1.00
13638;DHT22;6892;50.916;4.356;2022-07-09T12:38:56;22.70;1.00
13638;DHT22;6892;50.916;4.356;2022-07-09T12:41:23;22.90;1.00
13638;DHT22;6892;50.916;4.356;2022-07-09T12:43:51;23.10;1.00
13638;DHT22;6892;50.916;4.356;2022-07-09T12:46:18;23.80;1.00
13638;DHT22;6892;50.916;4.356;2022-07-09T12:48:45;23.80;1.00
13638;DHT22;6892;50.916;4.356;2022-07-09T12:51:12;23.50;1.00
13638;DHT22;6892;50.916;4.356;2022-07-09T12:53:38;23.60;1.00
13638;DHT22;6892;50.916;4.356;2022-07-09T12:56:05;24.30;66.20
13638;DHT22;6892;50.916;4.356;2022-07-09T12:58:32;24.20;99.90
13638;DHT22;6892;50.916;4.356;2022-07-09T13:01:00;24.00;99.90
13638;DHT22;6892;50.916;4.356;2022-07-09T13:03:27;24.60;99.90
13638;DHT22;6892;50.916;4.356;2022-07-09T13:05:54;24.20;99.90
13638;DHT22;6892;50.916;4.356;2022-07-09T13:08:20;23.60;99.90
13638;DHT22;6892;50.916;4.356;2022-07-09T13:10:47;23.50;99.90
13638;DHT22;6892;50.916;4.356;2022-07-09T13:13:14;23.20;99.90
13638;DHT22;6892;50.916;4.356;2022-07-09T13:15:41;24.00;99.90
13638;DHT22;6892;50.916;4.356;2022-07-09T13:18:10;23.70;99.90
13638;DHT22;6892;50.916;4.356;2022-07-09T13:20:36;23.70;99.90
13638;DHT22;6892;50.916;4.356;2022-07-09T13:23:03;24.10;99.90
13638;DHT22;6892;50.916;4.356;2022-07-09T13:25:30;23.70;99.90
13638;DHT22;6892;50.916;4.356;2022-07-09T13:27:57;23.30;99.90
13638;DHT22;6892;50.916;4.356;2022-07-09T13:30:24;22.60;99.90
13638;DHT22;6892;50.916;4.356;2022-07-09T13:32:50;22.40;99.90
13638;DHT22;6892;50.916;4.356;2022-07-09T13:35:18;22.60;99.90
13638;DHT22;6892;50.916;4.356;2022-07-09T13:37:45;23.20;99.90
13638;DHT22;6892;50.916;4.356;2022-07-09T13:40:12;23.10;99.90
13638;DHT22;6892;50.916;4.356;2022-07-09T13:42:38;23.30;99.90
13638;DHT22;6892;50.916;4.356;2022-07-09T13:45:06;23.40;99.90
13638;DHT22;6892;50.916;4.356;2022-07-09T13:47:32;23.40;99.90
13638;DHT22;6892;50.916;4.356;2022-07-09T13:49:59;23.00;99.90
13638;DHT22;6892;50.916;4.356;2022-07-09T13:52:27;23.50;99.90
13638;DHT22;6892;50.916;4.356;2022-07-09T13:54:54;23.80;99.90
13638;DHT22;6892;50.916;4.356;2022-07-09T13:57:21;22.80;99.90
13638;DHT22;6892;50.916;4.356;2022-07-09T13:59:48;22.70;99.90
13638;DHT22;6892;50.916;4.356;2022-07-09T14:02:14;22.30;99.90
13638;DHT22;6892;50.916;4.356;2022-07-09T14:04:41;22.80;99.90
13638;DHT22;6892;50.916;4.356;2022-07-09T14:07:08;22.90;99.90
13638;DHT22;6892;50.916;4.356;2022-07-09T14:09:36;22.60;99.90
13638;DHT22;6892;50.916;4.356;2022-07-09T14:12:03;22.90;99.90
13638;DHT22;6892;50.916;4.356;2022-07-09T14:14:30;22.90;99.90
13638;DHT22;6892;50.916;4.356;2022-07-09T14:16:56;23.20;99.90
13638;DHT22;6892;50.916;4.356;2022-07-09T14:19:23;23.80;99.90
13638;DHT22;6892;50.916;4.356;2022-07-09T14:21:50;23.30;99.90
13638;DHT22;6892;50.916;4.356;2022-07-09T14:24:17;23.60;99.90
13638;DHT22;6892;50.916;4.356;2022-07-09T14:26:45;23.90;99.90
13638;DHT22;6892;50.916;4.356;2022-07-09T14:29:13;23.40;99.90
13638;DHT22;6892;50.916;4.356;2022-07-09T14:31:40;22.70;99.90
13638;DHT22;6892;50.916;4.356;2022-07-09T14:34:07;22.00;99.90
13638;DHT22;6892;50.916;4.356;2022-07-09T14:36:33;22.10;99.90
13638;DHT22;6892;50.916;4.356;2022-07-09T14:39:00;22.20;99.90
13638;DHT22;6892;50.916;4.356;2022-07-09T14:41:28;22.50;99.90
13638;DHT22;6892;50.916;4.356;2022-07-09T14:43:56;22.80;99.90
13638;DHT22;6892;50.916;4.356;2022-07-09T14:46:23;22.80;99.90
13638;DHT22;6892;50.916;4.356;2022-07-09T14:48:50;22.50;99.90
13638;DHT22;6892;50.916;4.356;2022-07-09T14:51:17;22.30;99.90
13638;DHT22;6892;50.916;4.356;2022-07-09T14:53:44;22.00;99.90
13638;DHT22;6892;50.916;4.356;2022-07-09T14:56:11;22.80;99.90
13638;DHT22;6892;50.916;4.356;2022-07-09T14:58:38;22.80;99.90
13638;DHT22;6892;50.916;4.356;2022-07-09T15:01:06;22.70;99.90
13638;DHT22;6892;50.916;4.356;2022-07-09T15:03:33;22.40;99.90
13638;DHT22;6892;50.916;4.356;2022-07-09T15:05:59;22.10;99.90
13638;DHT22;6892;50.916;4.356;2022-07-09T15:08:26;22.50;99.90
13638;DHT22;6892;50.916;4.356;2022-07-09T15:10:53;22.70;99.90
13638;DHT22;6892;50.916;4.356;2022-07-09T15:13:20;22.50;99.90
13638;DHT22;6892;50.916;4.356;2022-07-09T15:15:47;22.50;99.90
13638;DHT22;6892;50.916;4.356;2022-07-09T15:18:15;22.60;99.90
13638;DHT22;6892;50.916;4.356;2022-07-09T15:20:41;22.60;99.90
13638;DHT22;6892;50.916;4.356;2022-07-09T15:23:09;22.70;99.90
13638;DHT22;6892;50.916;4.356;2022-07-09T15:25:36;23.00;99.90
13638;DHT22;6892;50.916;4.356;2022-07-09T15:28:03;22.70;99.90
13638;DHT22;6892;50.916;4.356;2022-07-09T15:30:30;22.80;99.90
13638;DHT22;6892;50.916;4.356;2022-07-09T15:32:56;22.80;99.90
13638;DHT22;6892;50.916;4.356;2022-07-09T15:35:26;23.10;99.90
13638;DHT22;6892;50.916;4.356;2022-07-09T15:37:52;22.90;99.90
13638;DHT22;6892;50.916;4.356;2022-07-09T15:40:19;22.60;99.90
13638;DHT22;6892;50.916;4.356;2022-07-09T15:42:46;22.30;99.90
13638;DHT22;6892;50.916;4.356;2022-07-09T15:45:13;22.10;99.90
13638;DHT22;6892;50.916;4.356;2022-07-09T15:47:40;22.20;99.90
13638;DHT22;6892;50.916;4.356;2022-07-09T15:50:07;22.00;99.90